sensor_id;sensor_type;location;lat;lon;timestamp;temperature;humidity
20070;DHT22;10195;50.868;4.382;2023-04-03T00:01:47;5.30;99.90
20070;DHT22;10195;50.868;4.382;2023-04-03T00:04:12;5.40;99.90
20070;DHT22;10195;50.868;4.382;2023-04-03T00:06:38;5.30;99.90
20070;DHT22;10195;50.868;4.382;2023-04-03T00:09:04;5.20;99.90
20070;DHT22;10195;50.868;4.382;2023-04-03T00:11:30;5.20;99.90
20070;DHT22;10195;50.868;4.382;2023-04-03T00:13:55;5.20;99.90
20070;DHT22;10195;50.868;4.382;2023-04-03T00:16:21;5.20;99.90
20070;DHT22;10195;50.868;4.382;2023-04-03T00:18:46;5.30;99.90
20070;DHT22;10195;50.868;4.382;2023-04-03T00:21:13;5.20;99.90
20070;DHT22;10195;50.868;4.382;2023-04-03T00:23:39;5.30;99.90
20070;DHT22;10195;50.868;4.382;2023-04-03T00:26:04;5.40;99.90
20070;DHT22;10195;50.868;4.382;2023-04-03T00:28:30;5.20;99.90
20070;DHT22;10195;50.868;4.382;2023-04-03T00:30:56;5.10;99.90
20070;DHT22;10195;50.868;4.382;2023-04-03T00:33:22;5.00;99.90
20070;DHT22;10195;50.868;4.382;2023-04-03T00:35:48;5.00;99.90
20070;DHT22;10195;50.868;4.382;2023-04-03T00:38:14;5.00;99.90
20070;DHT22;10195;50.868;4.382;2023-04-03T00:40:43;5.00;99.90
20070;DHT22;10195;50.868;4.382;2023-04-03T00:43:17;5.10;99.90
20070;DHT22;10195;50.868;4.382;2023-04-03T00:45:48;5.20;99.90
20070;DHT22;10195;50.868;4.382;2023-04-03T00:48:24;5.20;99.90
20070;DHT22;10195;50.868;4.382;2023-04-03T00:50:52;5.00;99.90
20070;DHT22;10195;50.868;4.382;2023-04-03T00:53:31;5.00;99.90
20070;DHT22;10195;50.868;4.382;2023-04-03T00:55:58;4.90;99.90
20070;DHT22;10195;50.868;4.382;2023-04-03T00:58:37;4.90;99.90
20070;DHT22;10195;50.868;4.382;2023-04-03T01:01:07;4.90;99.90
20070;DHT22;10195;50.868;4.382;2023-04-03T01:03:33;4.90;99.90
20070;DHT22;10195;50.868;4.382;2023-04-03T01:05:59;4.90;99.90
20070;DHT22;10195;50.868;4.382;2023-04-03T01:08:25;4.90;99.90
20070;DHT22;10195;50.868;4.382;2023-04-03T01:10:51;4.70;99.90
20070;DHT22;10195;50.868;4.382;2023-04-03T01:13:27;4.70;99.90
20070;DHT22;10195;50.868;4.382;2023-04-03T01:15:53;4.70;99.90
20070;DHT22;10195;50.868;4.382;2023-04-03T01:18:19;4.60;99.90
20070;DHT22;10195;50.868;4.382;2023-04-03T01:24:11;4.70;99.90
20070;DHT22;10195;50.868;4.382;2023-04-03T01:26:43;4.70;99.90
20070;DHT22;10195;50.868;4.382;2023-04-03T01:29:10;4.60;99.90
20070;DHT22;10195;50.868;4.382;2023-04-03T01:31:52;4.50;99.90
20070;DHT22;10195;50.868;4.382;2023-04-03T01:34:18;4.50;99.90
20070;DHT22;10195;50.868;4.382;2023-04-03T01:36:44;4.50;99.90
20070;DHT22;10195;50.868;4.382;2023-04-03T01:39:10;4.50;99.90
20070;DHT22;10195;50.868;4.382;2023-04-03T01:41:36;4.50;99.90
20070;DHT22;10195;50.868;4.382;2023-04-03T01:44:02;4.40;99.90
20070;DHT22;10195;50.868;4.382;2023-04-03T01:46:29;4.40;99.90
20070;DHT22;10195;50.868;4.382;2023-04-03T01:48:54;4.30;99.90
20070;DHT22;10195;50.868;4.382;2023-04-03T01:51:20;4.40;99.90
20070;DHT22;10195;50.868;4.382;2023-04-03T01:53:46;4.40;99.90
20070;DHT22;10195;50.868;4.382;2023-04-03T01:56:12;4.40;99.90
20070;DHT22;10195;50.868;4.382;2023-04-03T01:58:38;4.50;99.90
20070;DHT22;10195;50.868;4.382;2023-04-03T02:01:03;4.70;99.90
20070;DHT22;10195;50.868;4.382;2023-04-03T02:03:29;4.60;99.90
20070;DHT22;10195;50.868;4.382;2023-04-03T02:05:59;4.50;99.90
20070;DHT22;10195;50.868;4.382;2023-04-03T02:08:24;4.40;99.90
20070;DHT22;10195;50.868;4.382;2023-04-03T02:10:50;4.30;99.90
20070;DHT22;10195;50.868;4.382;2023-04-03T02:13:17;4.30;99.90
20070;DHT22;10195;50.868;4.382;2023-04-03T02:15:42;4.40;99.90
20070;DHT22;10195;50.868;4.382;2023-04-03T02:18:08;4.20;99.90
20070;DHT22;10195;50.868;4.382;2023-04-03T02:20:34;4.30;99.90
20070;DHT22;10195;50.868;4.382;2023-04-03T02:23:00;4.50;99.90
20070;DHT22;10195;50.868;4.382;2023-04-03T02:25:26;4.40;99.90
20070;DHT22;10195;50.868;4.382;2023-04-03T02:27:52;4.40;99.90
20070;DHT22;10195;50.868;4.382;2023-04-03T02:30:18;4.40;99.90
20070;DHT22;10195;50.868;4.382;2023-04-03T02:32:44;4.30;99.90
20070;DHT22;10195;50.868;4.382;2023-04-03T02:35:11;4.20;99.90
20070;DHT22;10195;50.868;4.382;2023-04-03T02:37:37;4.30;99.90
20070;DHT22;10195;50.868;4.382;2023-04-03T02:40:04;4.20;99.90
20070;DHT22;10195;50.868;4.382;2023-04-03T02:42:30;4.10;99.90
20070;DHT22;10195;50.868;4.382;2023-04-03T02:44:56;4.10;99.90
20070;DHT22;10195;50.868;4.382;2023-04-03T02:47:22;4.10;99.90
20070;DHT22;10195;50.868;4.382;2023-04-03T02:49:47;4.10;99.90
20070;DHT22;10195;50.868;4.382;2023-04-03T02:52:13;4.00;99.90
20070;DHT22;10195;50.868;4.382;2023-04-03T02:54:40;4.00;99.90
20070;DHT22;10195;50.868;4.382;2023-04-03T02:57:06;3.90;99.90
20070;DHT22;10195;50.868;4.382;2023-04-03T02:59:37;3.80;99.90
20070;DHT22;10195;50.868;4.382;2023-04-03T03:02:09;3.90;99.90
20070;DHT22;10195;50.868;4.382;2023-04-03T03:04:35;3.90;99.90
20070;DHT22;10195;50.868;4.382;2023-04-03T03:07:01;3.80;99.90
20070;DHT22;10195;50.868;4.382;2023-04-03T03:09:27;3.80;99.90
20070;DHT22;10195;50.868;4.382;2023-04-03T03:11:53;3.80;99.90
20070;DHT22;10195;50.868;4.382;2023-04-03T03:14:19;3.70;99.90
20070;DHT22;10195;50.868;4.382;2023-04-03T03:16:44;3.80;99.90
20070;DHT22;10195;50.868;4.382;2023-04-03T03:19:10;4.00;99.90
20070;DHT22;10195;50.868;4.382;2023-04-03T03:21:36;3.90;99.90
20070;DHT22;10195;50.868;4.382;2023-04-03T03:24:01;3.90;99.90
20070;DHT22;10195;50.868;4.382;2023-04-03T03:26:27;3.90;99.90
20070;DHT22;10195;50.868;4.382;2023-04-03T03:28:53;3.80;99.90
20070;DHT22;10195;50.868;4.382;2023-04-03T03:31:18;3.80;99.90
20070;DHT22;10195;50.868;4.382;2023-04-03T03:33:44;3.70;99.90
20070;DHT22;10195;50.868;4.382;2023-04-03T03:36:10;3.70;99.90
20070;DHT22;10195;50.868;4.382;2023-04-03T03:38:36;3.90;99.90
20070;DHT22;10195;50.868;4.382;2023-04-03T03:41:01;3.90;99.90
20070;DHT22;10195;50.868;4.382;2023-04-03T03:43:27;3.80;99.90
20070;DHT22;10195;50.868;4.382;2023-04-03T03:45:53;3.80;99.90
20070;DHT22;10195;50.868;4.382;2023-04-03T03:48:19;3.70;99.90
20070;DHT22;10195;50.868;4.382;2023-04-03T03:50:46;3.70;99.90
20070;DHT22;10195;50.868;4.382;2023-04-03T03:53:11;3.70;99.90
20070;DHT22;10195;50.868;4.382;2023-04-03T03:55:37;3.80;99.90
20070;DHT22;10195;50.868;4.382;2023-04-03T03:58:03;3.80;99.90
20070;DHT22;10195;50.868;4.382;2023-04-03T04:00:29;3.70;99.90
20070;DHT22;10195;50.868;4.382;2023-04-03T04:02:55;3.60;99.90
20070;DHT22;10195;50.868;4.382;2023-04-03T04:05:21;3.60;99.90
20070;DHT22;10195;50.868;4.382;2023-04-03T04:07:47;3.60;99.90
20070;DHT22;10195;50.868;4.382;2023-04-03T04:10:13;3.60;99.90
20070;DHT22;10195;50.868;4.382;2023-04-03T04:12:39;3.50;99.90
20070;DHT22;10195;50.868;4.382;2023-04-03T04:15:05;3.60;99.90
20070;DHT22;10195;50.868;4.382;2023-04-03T04:17:31;3.60;99.90
20070;DHT22;10195;50.868;4.382;2023-04-03T04:19:57;3.70;99.90
20070;DHT22;10195;50.868;4.382;2023-04-03T04:22:22;3.70;99.90
20070;DHT22;10195;50.868;4.382;2023-04-03T04:24:48;3.50;99.90
20070;DHT22;10195;50.868;4.382;2023-04-03T04:27:13;3.40;99.90
20070;DHT22;10195;50.868;4.382;2023-04-03T04:29:41;3.40;99.90
20070;DHT22;10195;50.868;4.382;2023-04-03T04:32:06;3.30;99.90
20070;DHT22;10195;50.868;4.382;2023-04-03T04:34:32;3.30;99.90
20070;DHT22;10195;50.868;4.382;2023-04-03T04:36:58;3.50;99.90
20070;DHT22;10195;50.868;4.382;2023-04-03T04:39:23;3.50;99.90
20070;DHT22;10195;50.868;4.382;2023-04-03T04:41:49;3.40;99.90
20070;DHT22;10195;50.868;4.382;2023-04-03T04:44:15;3.30;99.90
20070;DHT22;10195;50.868;4.382;2023-04-03T04:46:41;3.10;99.90
20070;DHT22;10195;50.868;4.382;2023-04-03T04:49:06;3.20;99.90
20070;DHT22;10195;50.868;4.382;2023-04-03T04:51:32;3.10;99.90
20070;DHT22;10195;50.868;4.382;2023-04-03T04:53:58;3.10;99.90
20070;DHT22;10195;50.868;4.382;2023-04-03T04:56:23;3.10;99.90
20070;DHT22;10195;50.868;4.382;2023-04-03T04:58:49;3.10;99.90
20070;DHT22;10195;50.868;4.382;2023-04-03T05:01:15;3.10;99.90
20070;DHT22;10195;50.868;4.382;2023-04-03T05:03:41;3.20;99.90
20070;DHT22;10195;50.868;4.382;2023-04-03T05:06:06;3.30;99.90
20070;DHT22;10195;50.868;4.382;2023-04-03T05:08:32;3.30;99.90
20070;DHT22;10195;50.868;4.382;2023-04-03T05:10:58;3.30;99.90
20070;DHT22;10195;50.868;4.382;2023-04-03T05:13:24;3.20;99.90
20070;DHT22;10195;50.868;4.382;2023-04-03T05:15:50;3.20;99.90
20070;DHT22;10195;50.868;4.382;2023-04-03T05:18:15;3.20;99.90
20070;DHT22;10195;50.868;4.382;2023-04-03T05:20:41;3.20;99.90
20070;DHT22;10195;50.868;4.382;2023-04-03T05:23:09;3.30;99.90
20070;DHT22;10195;50.868;4.382;2023-04-03T05:25:37;3.30;99.90
20070;DHT22;10195;50.868;4.382;2023-04-03T05:28:03;3.40;99.90
20070;DHT22;10195;50.868;4.382;2023-04-03T05:30:29;3.50;99.90
20070;DHT22;10195;50.868;4.382;2023-04-03T05:32:54;3.50;99.90
20070;DHT22;10195;50.868;4.382;2023-04-03T05:35:20;3.70;99.90
20070;DHT22;10195;50.868;4.382;2023-04-03T05:37:46;3.70;99.90
20070;DHT22;10195;50.868;4.382;2023-04-03T05:40:12;3.50;99.90
20070;DHT22;10195;50.868;4.382;2023-04-03T05:42:38;3.30;99.90
20070;DHT22;10195;50.868;4.382;2023-04-03T05:45:04;3.20;99.90
20070;DHT22;10195;50.868;4.382;2023-04-03T05:47:30;3.20;99.90
20070;DHT22;10195;50.868;4.382;2023-04-03T05:49:56;3.30;99.90
20070;DHT22;10195;50.868;4.382;2023-04-03T05:52:26;3.50;99.90
20070;DHT22;10195;50.868;4.382;2023-04-03T05:54:52;3.70;99.90
20070;DHT22;10195;50.868;4.382;2023-04-03T05:57:18;3.90;99.90
20070;DHT22;10195;50.868;4.382;2023-04-03T05:59:45;3.80;99.90
20070;DHT22;10195;50.868;4.382;2023-04-03T06:02:22;3.80;99.90
20070;DHT22;10195;50.868;4.382;2023-04-03T06:04:48;3.80;99.90
20070;DHT22;10195;50.868;4.382;2023-04-03T06:07:19;4.00;99.90
20070;DHT22;10195;50.868;4.382;2023-04-03T06:09:46;4.20;99.90
20070;DHT22;10195;50.868;4.382;2023-04-03T06:12:12;4.50;99.90
20070;DHT22;10195;50.868;4.382;2023-04-03T06:14:38;4.60;99.90
20070;DHT22;10195;50.868;4.382;2023-04-03T06:17:04;4.50;99.90
20070;DHT22;10195;50.868;4.382;2023-04-03T06:19:31;4.60;99.90
20070;DHT22;10195;50.868;4.382;2023-04-03T06:21:57;4.50;99.90
20070;DHT22;10195;50.868;4.382;2023-04-03T06:24:23;4.50;99.90
20070;DHT22;10195;50.868;4.382;2023-04-03T06:26:51;4.50;99.90
20070;DHT22;10195;50.868;4.382;2023-04-03T06:29:18;4.40;99.90
20070;DHT22;10195;50.868;4.382;2023-04-03T06:31:45;4.50;99.90
20070;DHT22;10195;50.868;4.382;2023-04-03T06:34:11;4.50;99.90
20070;DHT22;10195;50.868;4.382;2023-04-03T06:36:38;4.40;99.90
20070;DHT22;10195;50.868;4.382;2023-04-03T06:39:04;4.40;99.90
20070;DHT22;10195;50.868;4.382;2023-04-03T06:41:31;4.40;99.90
20070;DHT22;10195;50.868;4.382;2023-04-03T06:43:56;4.70;99.90
20070;DHT22;10195;50.868;4.382;2023-04-03T06:46:24;4.90;99.90
20070;DHT22;10195;50.868;4.382;2023-04-03T06:48:50;5.10;99.90
20070;DHT22;10195;50.868;4.382;2023-04-03T06:51:26;5.70;99.90
20070;DHT22;10195;50.868;4.382;2023-04-03T06:53:54;6.10;99.90
20070;DHT22;10195;50.868;4.382;2023-04-03T06:56:20;5.90;99.90
20070;DHT22;10195;50.868;4.382;2023-04-03T06:58:46;5.80;99.90
20070;DHT22;10195;50.868;4.382;2023-04-03T07:01:13;6.50;99.90
20070;DHT22;10195;50.868;4.382;2023-04-03T07:03:39;6.20;99.90
20070;DHT22;10195;50.868;4.382;2023-04-03T07:06:06;6.60;99.90
20070;DHT22;10195;50.868;4.382;2023-04-03T07:08:33;6.50;99.90
20070;DHT22;10195;50.868;4.382;2023-04-03T07:10:59;7.10;99.90
20070;DHT22;10195;50.868;4.382;2023-04-03T07:13:25;7.90;99.90
20070;DHT22;10195;50.868;4.382;2023-04-03T07:15:50;8.30;99.90
20070;DHT22;10195;50.868;4.382;2023-04-03T07:18:16;8.30;99.90
20070;DHT22;10195;50.868;4.382;2023-04-03T07:20:45;8.40;99.90
20070;DHT22;10195;50.868;4.382;2023-04-03T07:23:11;8.40;99.90
20070;DHT22;10195;50.868;4.382;2023-04-03T07:25:41;8.40;99.90
20070;DHT22;10195;50.868;4.382;2023-04-03T07:28:07;8.40;99.90
20070;DHT22;10195;50.868;4.382;2023-04-03T07:30:33;8.40;99.90
20070;DHT22;10195;50.868;4.382;2023-04-03T07:32:59;8.80;99.90
20070;DHT22;10195;50.868;4.382;2023-04-03T07:35:24;9.30;99.90
20070;DHT22;10195;50.868;4.382;2023-04-03T07:37:50;9.60;99.90
20070;DHT22;10195;50.868;4.382;2023-04-03T07:40:16;9.90;99.90
20070;DHT22;10195;50.868;4.382;2023-04-03T07:42:41;10.10;99.90
20070;DHT22;10195;50.868;4.382;2023-04-03T07:45:07;10.20;99.90
20070;DHT22;10195;50.868;4.382;2023-04-03T07:47:33;10.10;99.90
20070;DHT22;10195;50.868;4.382;2023-04-03T07:49:59;9.70;99.90
20070;DHT22;10195;50.868;4.382;2023-04-03T07:52:25;9.30;99.90
20070;DHT22;10195;50.868;4.382;2023-04-03T07:54:51;9.30;99.90
20070;DHT22;10195;50.868;4.382;2023-04-03T07:57:16;9.20;99.90
20070;DHT22;10195;50.868;4.382;2023-04-03T07:59:42;9.80;99.90
20070;DHT22;10195;50.868;4.382;2023-04-03T08:02:12;10.20;99.90
20070;DHT22;10195;50.868;4.382;2023-04-03T08:04:38;10.40;99.90
20070;DHT22;10195;50.868;4.382;2023-04-03T08:07:03;10.50;99.90
20070;DHT22;10195;50.868;4.382;2023-04-03T08:09:29;10.60;99.90
20070;DHT22;10195;50.868;4.382;2023-04-03T08:11:55;10.40;99.90
20070;DHT22;10195;50.868;4.382;2023-04-03T08:14:20;9.90;99.90
20070;DHT22;10195;50.868;4.382;2023-04-03T08:16:47;9.90;99.90
20070;DHT22;10195;50.868;4.382;2023-04-03T08:19:14;9.80;99.90
20070;DHT22;10195;50.868;4.382;2023-04-03T08:21:41;10.00;99.90
20070;DHT22;10195;50.868;4.382;2023-04-03T08:24:07;10.20;99.90
20070;DHT22;10195;50.868;4.382;2023-04-03T08:26:33;10.30;99.90
20070;DHT22;10195;50.868;4.382;2023-04-03T08:28:59;10.20;99.90
20070;DHT22;10195;50.868;4.382;2023-04-03T08:31:25;10.00;99.90
20070;DHT22;10195;50.868;4.382;2023-04-03T08:33:50;10.30;99.90
20070;DHT22;10195;50.868;4.382;2023-04-03T08:36:22;10.80;99.90
20070;DHT22;10195;50.868;4.382;2023-04-03T08:38:49;11.50;99.90
20070;DHT22;10195;50.868;4.382;2023-04-03T08:41:36;11.20;99.90
20070;DHT22;10195;50.868;4.382;2023-04-03T08:47:27;11.10;99.90
20070;DHT22;10195;50.868;4.382;2023-04-03T08:49:33;10.70;99.90
20070;DHT22;10195;50.868;4.382;2023-04-03T08:52:04;10.60;99.90
20070;DHT22;10195;50.868;4.382;2023-04-03T08:54:35;10.80;99.90
20070;DHT22;10195;50.868;4.382;2023-04-03T08:57:03;11.00;99.90
20070;DHT22;10195;50.868;4.382;2023-04-03T08:59:34;11.00;99.90
20070;DHT22;10195;50.868;4.382;2023-04-03T09:02:04;11.30;99.90
20070;DHT22;10195;50.868;4.382;2023-04-03T09:04:32;11.40;99.90
20070;DHT22;10195;50.868;4.382;2023-04-03T09:07:08;11.20;99.90
20070;DHT22;10195;50.868;4.382;2023-04-03T09:09:40;11.20;99.90
20070;DHT22;10195;50.868;4.382;2023-04-03T09:12:40;11.40;99.90
20070;DHT22;10195;50.868;4.382;2023-04-03T09:15:18;12.00;99.90
20070;DHT22;10195;50.868;4.382;2023-04-03T09:20:42;13.10;99.90
20070;DHT22;10195;50.868;4.382;2023-04-03T09:26:04;13.20;99.90
20070;DHT22;10195;50.868;4.382;2023-04-03T09:28:34;13.50;99.90
20070;DHT22;10195;50.868;4.382;2023-04-03T09:31:05;13.50;99.90
20070;DHT22;10195;50.868;4.382;2023-04-03T09:33:40;13.50;99.90
20070;DHT22;10195;50.868;4.382;2023-04-03T09:36:06;13.60;99.90
20070;DHT22;10195;50.868;4.382;2023-04-03T09:38:32;13.80;99.90
20070;DHT22;10195;50.868;4.382;2023-04-03T09:41:10;13.40;99.90
20070;DHT22;10195;50.868;4.382;2023-04-03T09:43:38;13.10;99.90
20070;DHT22;10195;50.868;4.382;2023-04-03T09:46:25;12.50;99.90
20070;DHT22;10195;50.868;4.382;2023-04-03T09:49:02;12.00;99.90
20070;DHT22;10195;50.868;4.382;2023-04-03T09:51:29;11.20;99.90
20070;DHT22;10195;50.868;4.382;2023-04-03T09:53:56;10.40;99.90
20070;DHT22;10195;50.868;4.382;2023-04-03T09:56:27;10.80;99.90
20070;DHT22;10195;50.868;4.382;2023-04-03T10:01:32;11.10;99.90
20070;DHT22;10195;50.868;4.382;2023-04-03T10:06:41;10.30;99.90
20070;DHT22;10195;50.868;4.382;2023-04-03T10:14:31;12.70;99.90
20070;DHT22;10195;50.868;4.382;2023-04-03T10:17:02;12.40;99.90
20070;DHT22;10195;50.868;4.382;2023-04-03T10:19:50;12.40;99.90
20070;DHT22;10195;50.868;4.382;2023-04-03T10:25:16;11.00;99.90
20070;DHT22;10195;50.868;4.382;2023-04-03T10:28:00;10.10;99.90
20070;DHT22;10195;50.868;4.382;2023-04-03T10:30:32;10.10;99.90
20070;DHT22;10195;50.868;4.382;2023-04-03T10:33:11;10.60;99.90
20070;DHT22;10195;50.868;4.382;2023-04-03T10:38:47;10.40;99.90
20070;DHT22;10195;50.868;4.382;2023-04-03T10:49:55;10.80;99.90
20070;DHT22;10195;50.868;4.382;2023-04-03T10:55:02;10.40;99.90
20070;DHT22;10195;50.868;4.382;2023-04-03T10:57:31;10.50;99.90
20070;DHT22;10195;50.868;4.382;2023-04-03T11:00:04;10.50;99.90
20070;DHT22;10195;50.868;4.382;2023-04-03T11:02:42;10.40;99.90
20070;DHT22;10195;50.868;4.382;2023-04-03T11:05:26;10.40;99.90
20070;DHT22;10195;50.868;4.382;2023-04-03T11:08:04;10.40;99.90
20070;DHT22;10195;50.868;4.382;2023-04-03T11:10:45;10.20;99.90
20070;DHT22;10195;50.868;4.382;2023-04-03T11:13:15;10.30;99.90
20070;DHT22;10195;50.868;4.382;2023-04-03T11:15:43;10.10;99.90
20070;DHT22;10195;50.868;4.382;2023-04-03T11:18:37;9.70;99.90
20070;DHT22;10195;50.868;4.382;2023-04-03T11:21:19;10.00;99.90
20070;DHT22;10195;50.868;4.382;2023-04-03T11:23:47;10.30;99.90
20070;DHT22;10195;50.868;4.382;2023-04-03T11:26:19;10.40;99.90
20070;DHT22;10195;50.868;4.382;2023-04-03T11:28:46;10.60;99.90
20070;DHT22;10195;50.868;4.382;2023-04-03T11:34:30;10.90;99.90
20070;DHT22;10195;50.868;4.382;2023-04-03T11:37:00;10.90;99.90
20070;DHT22;10195;50.868;4.382;2023-04-03T11:39:30;10.70;99.90
20070;DHT22;10195;50.868;4.382;2023-04-03T11:44:39;10.70;99.90
20070;DHT22;10195;50.868;4.382;2023-04-03T11:47:06;10.90;99.90
20070;DHT22;10195;50.868;4.382;2023-04-03T11:58:11;10.50;99.90
20070;DHT22;10195;50.868;4.382;2023-04-03T12:13:40;10.60;99.90
20070;DHT22;10195;50.868;4.382;2023-04-03T12:16:18;10.60;99.90
20070;DHT22;10195;50.868;4.382;2023-04-03T12:19:47;10.40;99.90
20070;DHT22;10195;50.868;4.382;2023-04-03T12:40:55;10.60;99.30
20070;DHT22;10195;50.868;4.382;2023-04-03T12:46:21;10.80;99.70
20070;DHT22;10195;50.868;4.382;2023-04-03T12:48:53;10.80;99.90
20070;DHT22;10195;50.868;4.382;2023-04-03T12:51:40;11.00;99.80
20070;DHT22;10195;50.868;4.382;2023-04-03T12:56:44;10.40;97.00
20070;DHT22;10195;50.868;4.382;2023-04-03T12:59:33;10.60;98.40
20070;DHT22;10195;50.868;4.382;2023-04-03T13:02:00;10.90;97.60
20070;DHT22;10195;50.868;4.382;2023-04-03T13:04:28;11.00;96.50
20070;DHT22;10195;50.868;4.382;2023-04-03T13:06:55;11.00;95.90
20070;DHT22;10195;50.868;4.382;2023-04-03T13:09:27;10.90;96.50
20070;DHT22;10195;50.868;4.382;2023-04-03T13:12:13;10.90;95.70
20070;DHT22;10195;50.868;4.382;2023-04-03T13:14:39;10.60;95.20
20070;DHT22;10195;50.868;4.382;2023-04-03T13:17:10;10.40;93.80
20070;DHT22;10195;50.868;4.382;2023-04-03T13:19:37;10.40;93.70
20070;DHT22;10195;50.868;4.382;2023-04-03T13:22:06;10.60;94.10
20070;DHT22;10195;50.868;4.382;2023-04-03T13:24:35;10.80;94.10
20070;DHT22;10195;50.868;4.382;2023-04-03T13:27:03;10.80;93.80
20070;DHT22;10195;50.868;4.382;2023-04-03T13:29:35;10.80;93.30
20070;DHT22;10195;50.868;4.382;2023-04-03T13:32:03;10.70;93.80
20070;DHT22;10195;50.868;4.382;2023-04-03T13:34:38;10.60;91.30
20070;DHT22;10195;50.868;4.382;2023-04-03T13:37:06;10.70;91.40
20070;DHT22;10195;50.868;4.382;2023-04-03T13:39:36;10.50;90.00
20070;DHT22;10195;50.868;4.382;2023-04-03T13:42:26;10.40;91.70
20070;DHT22;10195;50.868;4.382;2023-04-03T13:47:41;10.50;94.20
20070;DHT22;10195;50.868;4.382;2023-04-03T13:50:26;10.60;93.70
20070;DHT22;10195;50.868;4.382;2023-04-03T13:52:53;10.80;93.40
20070;DHT22;10195;50.868;4.382;2023-04-03T13:58:35;11.00;92.20
20070;DHT22;10195;50.868;4.382;2023-04-03T14:03:31;10.90;93.10
20070;DHT22;10195;50.868;4.382;2023-04-03T14:05:58;10.70;92.70
20070;DHT22;10195;50.868;4.382;2023-04-03T14:08:24;10.50;93.30
20070;DHT22;10195;50.868;4.382;2023-04-03T14:10:50;10.40;92.50
20070;DHT22;10195;50.868;4.382;2023-04-03T14:13:20;10.60;92.80
20070;DHT22;10195;50.868;4.382;2023-04-03T14:15:47;10.60;93.20
20070;DHT22;10195;50.868;4.382;2023-04-03T14:18:16;10.40;93.20
20070;DHT22;10195;50.868;4.382;2023-04-03T14:20:43;10.40;92.90
20070;DHT22;10195;50.868;4.382;2023-04-03T14:23:09;10.60;93.50
20070;DHT22;10195;50.868;4.382;2023-04-03T14:25:36;10.70;91.90
20070;DHT22;10195;50.868;4.382;2023-04-03T14:28:14;10.80;92.60
20070;DHT22;10195;50.868;4.382;2023-04-03T14:30:40;10.70;92.90
20070;DHT22;10195;50.868;4.382;2023-04-03T14:33:06;10.70;93.10
20070;DHT22;10195;50.868;4.382;2023-04-03T14:35:32;10.70;93.50
20070;DHT22;10195;50.868;4.382;2023-04-03T14:37:58;10.80;94.10
20070;DHT22;10195;50.868;4.382;2023-04-03T14:40:27;11.00;92.90
20070;DHT22;10195;50.868;4.382;2023-04-03T14:42:53;11.00;93.40
20070;DHT22;10195;50.868;4.382;2023-04-03T14:45:22;10.80;92.10
20070;DHT22;10195;50.868;4.382;2023-04-03T14:47:51;10.80;93.60
20070;DHT22;10195;50.868;4.382;2023-04-03T14:50:23;10.90;94.20
20070;DHT22;10195;50.868;4.382;2023-04-03T14:52:52;10.80;93.10
20070;DHT22;10195;50.868;4.382;2023-04-03T14:55:21;10.80;93.00
20070;DHT22;10195;50.868;4.382;2023-04-03T14:57:48;10.90;93.40
20070;DHT22;10195;50.868;4.382;2023-04-03T15:00:20;11.00;93.70
20070;DHT22;10195;50.868;4.382;2023-04-03T15:02:47;11.00;93.70
20070;DHT22;10195;50.868;4.382;2023-04-03T15:05:13;11.00;94.30
20070;DHT22;10195;50.868;4.382;2023-04-03T15:07:43;11.10;93.80
20070;DHT22;10195;50.868;4.382;2023-04-03T15:10:30;11.20;93.60
20070;DHT22;10195;50.868;4.382;2023-04-03T15:12:57;11.20;92.20
20070;DHT22;10195;50.868;4.382;2023-04-03T15:15:24;11.10;93.30
20070;DHT22;10195;50.868;4.382;2023-04-03T15:17:54;11.00;92.00
20070;DHT22;10195;50.868;4.382;2023-04-03T15:20:22;10.90;92.30
20070;DHT22;10195;50.868;4.382;2023-04-03T15:22:48;10.70;92.50
20070;DHT22;10195;50.868;4.382;2023-04-03T15:25:14;10.70;92.30
20070;DHT22;10195;50.868;4.382;2023-04-03T15:27:41;10.70;91.10
20070;DHT22;10195;50.868;4.382;2023-04-03T15:30:13;10.60;91.20
20070;DHT22;10195;50.868;4.382;2023-04-03T15:32:39;10.70;91.90
20070;DHT22;10195;50.868;4.382;2023-04-03T15:35:05;10.90;91.50
20070;DHT22;10195;50.868;4.382;2023-04-03T15:37:31;10.90;91.70
20070;DHT22;10195;50.868;4.382;2023-04-03T15:39:57;10.80;91.10
20070;DHT22;10195;50.868;4.382;2023-04-03T15:42:23;11.00;92.40
20070;DHT22;10195;50.868;4.382;2023-04-03T15:44:48;11.00;91.70
20070;DHT22;10195;50.868;4.382;2023-04-03T15:47:14;10.90;91.10
20070;DHT22;10195;50.868;4.382;2023-04-03T15:49:40;10.70;90.70
20070;DHT22;10195;50.868;4.382;2023-04-03T15:52:06;10.70;91.00
20070;DHT22;10195;50.868;4.382;2023-04-03T15:54:33;10.70;91.60
20070;DHT22;10195;50.868;4.382;2023-04-03T15:57:00;10.70;92.10
20070;DHT22;10195;50.868;4.382;2023-04-03T15:59:26;10.70;92.40
20070;DHT22;10195;50.868;4.382;2023-04-03T16:01:52;10.80;93.10
20070;DHT22;10195;50.868;4.382;2023-04-03T16:04:19;10.80;93.40
20070;DHT22;10195;50.868;4.382;2023-04-03T16:06:46;10.90;92.90
20070;DHT22;10195;50.868;4.382;2023-04-03T16:09:12;11.00;91.50
20070;DHT22;10195;50.868;4.382;2023-04-03T16:11:37;10.70;91.50
20070;DHT22;10195;50.868;4.382;2023-04-03T16:14:07;10.70;92.90
20070;DHT22;10195;50.868;4.382;2023-04-03T16:16:33;10.80;92.60
20070;DHT22;10195;50.868;4.382;2023-04-03T16:18:59;10.80;92.50
20070;DHT22;10195;50.868;4.382;2023-04-03T16:21:25;10.80;94.10
20070;DHT22;10195;50.868;4.382;2023-04-03T16:23:52;10.70;93.90
20070;DHT22;10195;50.868;4.382;2023-04-03T16:26:17;10.60;94.70
20070;DHT22;10195;50.868;4.382;2023-04-03T16:28:43;10.60;94.80
20070;DHT22;10195;50.868;4.382;2023-04-03T16:31:09;10.60;95.10
20070;DHT22;10195;50.868;4.382;2023-04-03T16:33:36;10.50;94.70
20070;DHT22;10195;50.868;4.382;2023-04-03T16:36:03;10.50;95.00
20070;DHT22;10195;50.868;4.382;2023-04-03T16:38:30;10.50;95.60
20070;DHT22;10195;50.868;4.382;2023-04-03T16:40:55;10.60;95.50
20070;DHT22;10195;50.868;4.382;2023-04-03T16:43:25;10.50;95.80
20070;DHT22;10195;50.868;4.382;2023-04-03T16:45:51;10.60;96.30
20070;DHT22;10195;50.868;4.382;2023-04-03T16:48:17;10.60;95.60
20070;DHT22;10195;50.868;4.382;2023-04-03T16:50:46;10.70;95.50
20070;DHT22;10195;50.868;4.382;2023-04-03T16:53:13;10.60;95.80
20070;DHT22;10195;50.868;4.382;2023-04-03T16:55:39;10.50;96.40
20070;DHT22;10195;50.868;4.382;2023-04-03T16:58:05;10.50;96.20
20070;DHT22;10195;50.868;4.382;2023-04-03T17:00:31;10.40;96.50
20070;DHT22;10195;50.868;4.382;2023-04-03T17:02:57;10.30;96.30
20070;DHT22;10195;50.868;4.382;2023-04-03T17:05:23;10.20;96.80
20070;DHT22;10195;50.868;4.382;2023-04-03T17:07:50;10.20;96.40
20070;DHT22;10195;50.868;4.382;2023-04-03T17:10:15;10.20;96.60
20070;DHT22;10195;50.868;4.382;2023-04-03T17:12:41;10.10;96.20
20070;DHT22;10195;50.868;4.382;2023-04-03T17:15:09;10.10;96.90
20070;DHT22;10195;50.868;4.382;2023-04-03T17:17:35;10.10;97.30
20070;DHT22;10195;50.868;4.382;2023-04-03T17:20:01;10.30;97.50
20070;DHT22;10195;50.868;4.382;2023-04-03T17:22:28;10.20;97.00
20070;DHT22;10195;50.868;4.382;2023-04-03T17:24:55;10.10;97.50